sensor_id;sensor_type;location;lat;lon;timestamp;temperature;humidity
39023;DHT22;25908;51.984;5.928;2023-02-03T00:00:56;9.60;99.90
39023;DHT22;25908;51.984;5.928;2023-02-03T00:03:22;9.60;99.90
39023;DHT22;25908;51.984;5.928;2023-02-03T00:05:47;9.60;99.90
39023;DHT22;25908;51.984;5.928;2023-02-03T00:08:14;9.60;99.90
39023;DHT22;25908;51.984;5.928;2023-02-03T00:10:40;9.60;99.90
39023;DHT22;25908;51.984;5.928;2023-02-03T00:13:07;9.60;99.90
39023;DHT22;25908;51.984;5.928;2023-02-03T00:15:32;9.60;99.90
39023;DHT22;25908;51.984;5.928;2023-02-03T00:17:58;9.60;99.90
39023;DHT22;25908;51.984;5.928;2023-02-03T00:20:24;9.60;99.90
39023;DHT22;25908;51.984;5.928;2023-02-03T00:22:50;9.60;99.90
39023;DHT22;25908;51.984;5.928;2023-02-03T00:25:16;9.70;99.90
39023;DHT22;25908;51.984;5.928;2023-02-03T00:27:42;9.60;99.90
39023;DHT22;25908;51.984;5.928;2023-02-03T00:30:08;9.60;99.90
39023;DHT22;25908;51.984;5.928;2023-02-03T00:32:34;9.70;99.90
39023;DHT22;25908;51.984;5.928;2023-02-03T00:35:00;9.70;99.90
39023;DHT22;25908;51.984;5.928;2023-02-03T00:37:25;9.60;99.90
39023;DHT22;25908;51.984;5.928;2023-02-03T00:39:51;9.60;99.90
39023;DHT22;25908;51.984;5.928;2023-02-03T00:42:17;9.70;99.90
39023;DHT22;25908;51.984;5.928;2023-02-03T00:44:42;9.70;99.90
39023;DHT22;25908;51.984;5.928;2023-02-03T00:47:08;9.70;99.90
39023;DHT22;25908;51.984;5.928;2023-02-03T00:49:33;9.70;99.90
39023;DHT22;25908;51.984;5.928;2023-02-03T00:51:59;9.70;99.90
39023;DHT22;25908;51.984;5.928;2023-02-03T00:54:24;9.70;99.90
39023;DHT22;25908;51.984;5.928;2023-02-03T00:56:50;9.70;99.90
39023;DHT22;25908;51.984;5.928;2023-02-03T00:59:16;9.70;99.90
39023;DHT22;25908;51.984;5.928;2023-02-03T01:01:41;9.70;99.90
39023;DHT22;25908;51.984;5.928;2023-02-03T01:04:07;9.80;99.90
39023;DHT22;25908;51.984;5.928;2023-02-03T01:06:32;9.80;99.90
39023;DHT22;25908;51.984;5.928;2023-02-03T01:09:00;9.80;99.90
39023;DHT22;25908;51.984;5.928;2023-02-03T01:11:26;9.80;99.90
39023;DHT22;25908;51.984;5.928;2023-02-03T01:13:53;9.80;99.90
39023;DHT22;25908;51.984;5.928;2023-02-03T01:16:21;9.80;99.90
39023;DHT22;25908;51.984;5.928;2023-02-03T01:18:47;9.80;99.90
39023;DHT22;25908;51.984;5.928;2023-02-03T01:21:16;9.80;99.90
39023;DHT22;25908;51.984;5.928;2023-02-03T01:23:42;9.70;99.90
39023;DHT22;25908;51.984;5.928;2023-02-03T01:26:11;9.70;99.90
39023;DHT22;25908;51.984;5.928;2023-02-03T01:28:37;9.70;99.90
39023;DHT22;25908;51.984;5.928;2023-02-03T01:31:12;9.80;99.90
39023;DHT22;25908;51.984;5.928;2023-02-03T01:33:38;9.70;99.90
39023;DHT22;25908;51.984;5.928;2023-02-03T01:36:06;9.70;99.90
39023;DHT22;25908;51.984;5.928;2023-02-03T01:38:32;9.70;99.90
39023;DHT22;25908;51.984;5.928;2023-02-03T01:40:58;9.70;99.90
39023;DHT22;25908;51.984;5.928;2023-02-03T01:43:33;9.70;99.90
39023;DHT22;25908;51.984;5.928;2023-02-03T01:46:02;9.80;99.90
39023;DHT22;25908;51.984;5.928;2023-02-03T01:48:30;9.80;99.90
39023;DHT22;25908;51.984;5.928;2023-02-03T01:50:59;9.80;99.90
39023;DHT22;25908;51.984;5.928;2023-02-03T01:53:25;9.80;99.90
39023;DHT22;25908;51.984;5.928;2023-02-03T01:55:50;9.80;99.90
39023;DHT22;25908;51.984;5.928;2023-02-03T01:58:25;9.80;99.90
39023;DHT22;25908;51.984;5.928;2023-02-03T02:00:53;9.80;99.90
39023;DHT22;25908;51.984;5.928;2023-02-03T02:03:28;9.80;99.90
39023;DHT22;25908;51.984;5.928;2023-02-03T02:06:10;9.80;99.90
39023;DHT22;25908;51.984;5.928;2023-02-03T02:08:36;9.80;99.90
39023;DHT22;25908;51.984;5.928;2023-02-03T02:11:04;9.80;99.90
39023;DHT22;25908;51.984;5.928;2023-02-03T02:13:32;9.80;99.90
39023;DHT22;25908;51.984;5.928;2023-02-03T02:16:10;9.80;99.90
39023;DHT22;25908;51.984;5.928;2023-02-03T02:19:08;9.80;99.90
39023;DHT22;25908;51.984;5.928;2023-02-03T02:35:55;9.80;99.90
39023;DHT22;25908;51.984;5.928;2023-02-03T02:41:13;9.80;99.90
39023;DHT22;25908;51.984;5.928;2023-02-03T02:43:41;9.80;99.90
39023;DHT22;25908;51.984;5.928;2023-02-03T02:46:18;9.80;99.90
39023;DHT22;25908;51.984;5.928;2023-02-03T02:48:49;9.70;99.90
39023;DHT22;25908;51.984;5.928;2023-02-03T02:51:17;9.70;99.90
39023;DHT22;25908;51.984;5.928;2023-02-03T02:53:48;9.70;99.90
39023;DHT22;25908;51.984;5.928;2023-02-03T02:56:15;9.80;99.90
39023;DHT22;25908;51.984;5.928;2023-02-03T02:58:44;9.80;99.90
39023;DHT22;25908;51.984;5.928;2023-02-03T03:01:12;9.80;99.90
39023;DHT22;25908;51.984;5.928;2023-02-03T03:03:37;9.80;99.90
39023;DHT22;25908;51.984;5.928;2023-02-03T03:06:23;9.80;99.90
39023;DHT22;25908;51.984;5.928;2023-02-03T03:09:03;9.80;99.90
39023;DHT22;25908;51.984;5.928;2023-02-03T03:11:35;9.80;99.90
39023;DHT22;25908;51.984;5.928;2023-02-03T03:14:03;9.80;99.90
39023;DHT22;25908;51.984;5.928;2023-02-03T03:16:33;9.80;99.90
39023;DHT22;25908;51.984;5.928;2023-02-03T03:19:01;9.80;99.90
39023;DHT22;25908;51.984;5.928;2023-02-03T03:21:33;9.90;99.90
39023;DHT22;25908;51.984;5.928;2023-02-03T03:24:05;9.90;99.90
39023;DHT22;25908;51.984;5.928;2023-02-03T03:27:07;9.90;99.90
39023;DHT22;25908;51.984;5.928;2023-02-03T03:32:00;9.90;99.90
39023;DHT22;25908;51.984;5.928;2023-02-03T03:34:27;9.90;99.90
39023;DHT22;25908;51.984;5.928;2023-02-03T03:37:19;9.90;99.90
39023;DHT22;25908;51.984;5.928;2023-02-03T03:39:53;9.90;99.90
39023;DHT22;25908;51.984;5.928;2023-02-03T03:42:32;9.90;99.90
39023;DHT22;25908;51.984;5.928;2023-02-03T03:45:08;9.90;99.90
39023;DHT22;25908;51.984;5.928;2023-02-03T03:50:03;9.90;99.90
39023;DHT22;25908;51.984;5.928;2023-02-03T03:52:33;9.90;99.90
39023;DHT22;25908;51.984;5.928;2023-02-03T03:55:02;9.90;99.90
39023;DHT22;25908;51.984;5.928;2023-02-03T03:57:33;9.80;99.90
39023;DHT22;25908;51.984;5.928;2023-02-03T04:00:03;9.90;99.90
39023;DHT22;25908;51.984;5.928;2023-02-03T04:02:29;9.90;99.90
39023;DHT22;25908;51.984;5.928;2023-02-03T04:04:59;9.90;99.90
39023;DHT22;25908;51.984;5.928;2023-02-03T04:07:43;9.90;99.90
39023;DHT22;25908;51.984;5.928;2023-02-03T04:10:33;10.00;99.90
39023;DHT22;25908;51.984;5.928;2023-02-03T04:12:59;10.00;99.90
39023;DHT22;25908;51.984;5.928;2023-02-03T04:15:25;9.90;99.90
39023;DHT22;25908;51.984;5.928;2023-02-03T04:17:51;10.00;99.90
39023;DHT22;25908;51.984;5.928;2023-02-03T04:20:19;10.00;99.90
39023;DHT22;25908;51.984;5.928;2023-02-03T04:22:45;10.00;99.90
39023;DHT22;25908;51.984;5.928;2023-02-03T04:25:10;9.90;99.90
39023;DHT22;25908;51.984;5.928;2023-02-03T04:27:36;9.90;99.90
39023;DHT22;25908;51.984;5.928;2023-02-03T04:30:02;9.90;99.90
39023;DHT22;25908;51.984;5.928;2023-02-03T04:32:28;9.90;99.90
39023;DHT22;25908;51.984;5.928;2023-02-03T04:34:55;9.90;99.90
39023;DHT22;25908;51.984;5.928;2023-02-03T04:37:21;9.90;99.90
39023;DHT22;25908;51.984;5.928;2023-02-03T04:39:48;9.90;99.90
39023;DHT22;25908;51.984;5.928;2023-02-03T04:42:15;9.90;99.90
39023;DHT22;25908;51.984;5.928;2023-02-03T04:44:41;10.00;99.90
39023;DHT22;25908;51.984;5.928;2023-02-03T04:47:06;10.00;99.90
39023;DHT22;25908;51.984;5.928;2023-02-03T04:49:32;10.00;99.90
39023;DHT22;25908;51.984;5.928;2023-02-03T04:51:57;10.00;99.90
39023;DHT22;25908;51.984;5.928;2023-02-03T04:54:23;10.00;99.90
39023;DHT22;25908;51.984;5.928;2023-02-03T04:56:49;10.00;99.90
39023;DHT22;25908;51.984;5.928;2023-02-03T04:59:14;10.00;99.90
39023;DHT22;25908;51.984;5.928;2023-02-03T05:01:40;10.00;99.90
39023;DHT22;25908;51.984;5.928;2023-02-03T05:04:05;10.00;99.90
39023;DHT22;25908;51.984;5.928;2023-02-03T05:06:31;10.00;99.90
39023;DHT22;25908;51.984;5.928;2023-02-03T05:08:58;10.00;99.90
39023;DHT22;25908;51.984;5.928;2023-02-03T05:11:24;10.00;99.90
39023;DHT22;25908;51.984;5.928;2023-02-03T05:13:49;10.00;99.90
39023;DHT22;25908;51.984;5.928;2023-02-03T05:16:15;10.00;99.90
39023;DHT22;25908;51.984;5.928;2023-02-03T05:18:41;10.10;99.90
39023;DHT22;25908;51.984;5.928;2023-02-03T05:21:06;10.10;99.90
39023;DHT22;25908;51.984;5.928;2023-02-03T05:23:32;10.10;99.90
39023;DHT22;25908;51.984;5.928;2023-02-03T05:25:58;10.10;99.90
39023;DHT22;25908;51.984;5.928;2023-02-03T05:28:23;10.10;99.90
39023;DHT22;25908;51.984;5.928;2023-02-03T05:30:49;10.10;99.90
39023;DHT22;25908;51.984;5.928;2023-02-03T05:33:15;10.20;99.90
39023;DHT22;25908;51.984;5.928;2023-02-03T05:35:40;10.20;99.90
39023;DHT22;25908;51.984;5.928;2023-02-03T05:38:06;10.20;99.90
39023;DHT22;25908;51.984;5.928;2023-02-03T05:40:32;10.20;99.90
39023;DHT22;25908;51.984;5.928;2023-02-03T05:43:16;10.20;99.90
39023;DHT22;25908;51.984;5.928;2023-02-03T05:45:42;10.20;99.90
39023;DHT22;25908;51.984;5.928;2023-02-03T05:48:08;10.20;99.90
39023;DHT22;25908;51.984;5.928;2023-02-03T05:50:34;10.20;99.90
39023;DHT22;25908;51.984;5.928;2023-02-03T05:53:00;10.20;99.90
39023;DHT22;25908;51.984;5.928;2023-02-03T05:55:27;10.20;99.90
39023;DHT22;25908;51.984;5.928;2023-02-03T05:57:53;10.20;99.90
39023;DHT22;25908;51.984;5.928;2023-02-03T06:00:19;10.20;99.90
39023;DHT22;25908;51.984;5.928;2023-02-03T06:02:53;10.20;99.90
39023;DHT22;25908;51.984;5.928;2023-02-03T06:05:20;10.20;99.90
39023;DHT22;25908;51.984;5.928;2023-02-03T06:07:46;10.20;99.90
39023;DHT22;25908;51.984;5.928;2023-02-03T06:10:12;10.20;99.90
39023;DHT22;25908;51.984;5.928;2023-02-03T06:12:38;10.20;99.90
39023;DHT22;25908;51.984;5.928;2023-02-03T06:15:04;10.20;99.90
39023;DHT22;25908;51.984;5.928;2023-02-03T06:17:29;10.20;99.90
39023;DHT22;25908;51.984;5.928;2023-02-03T06:19:55;10.20;99.90
39023;DHT22;25908;51.984;5.928;2023-02-03T06:22:20;10.20;99.90
39023;DHT22;25908;51.984;5.928;2023-02-03T06:24:46;10.20;99.90
39023;DHT22;25908;51.984;5.928;2023-02-03T06:27:13;10.20;99.90
39023;DHT22;25908;51.984;5.928;2023-02-03T06:29:40;10.20;99.90
39023;DHT22;25908;51.984;5.928;2023-02-03T06:32:06;10.20;99.90
39023;DHT22;25908;51.984;5.928;2023-02-03T06:34:32;10.20;99.90
39023;DHT22;25908;51.984;5.928;2023-02-03T06:36:57;10.20;99.90
39023;DHT22;25908;51.984;5.928;2023-02-03T06:39:23;10.20;99.90
39023;DHT22;25908;51.984;5.928;2023-02-03T06:41:49;10.20;99.90
39023;DHT22;25908;51.984;5.928;2023-02-03T06:44:19;10.20;99.90
39023;DHT22;25908;51.984;5.928;2023-02-03T06:46:44;10.20;99.90
39023;DHT22;25908;51.984;5.928;2023-02-03T06:49:10;10.20;99.90
39023;DHT22;25908;51.984;5.928;2023-02-03T06:51:36;10.20;99.90
39023;DHT22;25908;51.984;5.928;2023-02-03T06:54:02;10.10;99.90
39023;DHT22;25908;51.984;5.928;2023-02-03T06:56:31;10.10;99.90
39023;DHT22;25908;51.984;5.928;2023-02-03T06:58:57;10.20;99.90
39023;DHT22;25908;51.984;5.928;2023-02-03T07:01:23;10.20;99.90
39023;DHT22;25908;51.984;5.928;2023-02-03T07:03:50;10.20;99.90
39023;DHT22;25908;51.984;5.928;2023-02-03T07:06:16;10.20;99.90
39023;DHT22;25908;51.984;5.928;2023-02-03T07:08:41;10.20;99.90
39023;DHT22;25908;51.984;5.928;2023-02-03T07:11:07;10.20;99.90
39023;DHT22;25908;51.984;5.928;2023-02-03T07:13:33;10.20;99.90
39023;DHT22;25908;51.984;5.928;2023-02-03T07:15:58;10.20;99.90
39023;DHT22;25908;51.984;5.928;2023-02-03T07:18:24;10.20;99.90
39023;DHT22;25908;51.984;5.928;2023-02-03T07:20:51;10.10;99.90
39023;DHT22;25908;51.984;5.928;2023-02-03T07:23:17;10.20;99.90
39023;DHT22;25908;51.984;5.928;2023-02-03T07:25:43;10.20;99.90
39023;DHT22;25908;51.984;5.928;2023-02-03T07:28:09;10.20;99.90
39023;DHT22;25908;51.984;5.928;2023-02-03T07:30:34;10.20;99.90
39023;DHT22;25908;51.984;5.928;2023-02-03T07:33:00;10.20;99.90
39023;DHT22;25908;51.984;5.928;2023-02-03T07:35:25;10.10;99.90
39023;DHT22;25908;51.984;5.928;2023-02-03T07:37:51;10.10;99.90
39023;DHT22;25908;51.984;5.928;2023-02-03T07:40:18;10.10;99.90
39023;DHT22;25908;51.984;5.928;2023-02-03T07:42:45;10.10;99.90
39023;DHT22;25908;51.984;5.928;2023-02-03T07:45:13;10.10;99.90
39023;DHT22;25908;51.984;5.928;2023-02-03T07:47:40;10.10;99.90
39023;DHT22;25908;51.984;5.928;2023-02-03T07:50:06;10.10;99.90
39023;DHT22;25908;51.984;5.928;2023-02-03T07:52:31;10.10;99.90
39023;DHT22;25908;51.984;5.928;2023-02-03T07:54:57;10.10;99.90
39023;DHT22;25908;51.984;5.928;2023-02-03T07:57:23;10.10;99.90
39023;DHT22;25908;51.984;5.928;2023-02-03T07:59:48;10.10;99.90
39023;DHT22;25908;51.984;5.928;2023-02-03T08:02:14;10.10;99.90
39023;DHT22;25908;51.984;5.928;2023-02-03T08:04:39;10.10;99.90
39023;DHT22;25908;51.984;5.928;2023-02-03T08:07:05;10.20;99.90
39023;DHT22;25908;51.984;5.928;2023-02-03T08:09:30;10.20;99.90
39023;DHT22;25908;51.984;5.928;2023-02-03T08:11:56;10.20;99.90
39023;DHT22;25908;51.984;5.928;2023-02-03T08:14:21;10.20;99.90
39023;DHT22;25908;51.984;5.928;2023-02-03T08:16:47;10.20;99.90
39023;DHT22;25908;51.984;5.928;2023-02-03T08:19:12;10.20;99.90
39023;DHT22;25908;51.984;5.928;2023-02-03T08:21:38;10.20;99.90
39023;DHT22;25908;51.984;5.928;2023-02-03T08:24:04;10.20;99.90
39023;DHT22;25908;51.984;5.928;2023-02-03T08:26:30;10.20;99.90
39023;DHT22;25908;51.984;5.928;2023-02-03T08:28:55;10.20;99.90
39023;DHT22;25908;51.984;5.928;2023-02-03T08:31:21;10.20;99.90
39023;DHT22;25908;51.984;5.928;2023-02-03T08:33:46;10.20;99.90
39023;DHT22;25908;51.984;5.928;2023-02-03T08:36:12;10.20;99.90
39023;DHT22;25908;51.984;5.928;2023-02-03T08:38:38;10.20;99.90
39023;DHT22;25908;51.984;5.928;2023-02-03T08:41:12;10.30;99.90
39023;DHT22;25908;51.984;5.928;2023-02-03T08:43:38;10.30;99.90
39023;DHT22;25908;51.984;5.928;2023-02-03T08:46:04;10.30;99.90
39023;DHT22;25908;51.984;5.928;2023-02-03T08:48:30;10.30;99.90
39023;DHT22;25908;51.984;5.928;2023-02-03T08:50:56;10.30;99.90
39023;DHT22;25908;51.984;5.928;2023-02-03T08:53:22;10.40;99.90
39023;DHT22;25908;51.984;5.928;2023-02-03T08:55:50;10.40;99.90
39023;DHT22;25908;51.984;5.928;2023-02-03T08:58:16;10.40;99.90
39023;DHT22;25908;51.984;5.928;2023-02-03T09:00:42;10.40;99.90
39023;DHT22;25908;51.984;5.928;2023-02-03T09:03:07;10.40;99.90
39023;DHT22;25908;51.984;5.928;2023-02-03T09:05:33;10.50;99.90
39023;DHT22;25908;51.984;5.928;2023-02-03T09:07:58;10.50;99.90
39023;DHT22;25908;51.984;5.928;2023-02-03T09:10:24;10.50;99.90
39023;DHT22;25908;51.984;5.928;2023-02-03T09:12:49;10.50;99.90
39023;DHT22;25908;51.984;5.928;2023-02-03T09:15:15;10.50;99.90
39023;DHT22;25908;51.984;5.928;2023-02-03T09:17:41;10.50;99.90
39023;DHT22;25908;51.984;5.928;2023-02-03T09:20:07;10.60;99.90
39023;DHT22;25908;51.984;5.928;2023-02-03T09:22:33;10.60;99.90
39023;DHT22;25908;51.984;5.928;2023-02-03T09:24:59;10.60;99.90
39023;DHT22;25908;51.984;5.928;2023-02-03T09:27:27;10.60;99.90
39023;DHT22;25908;51.984;5.928;2023-02-03T09:29:53;10.60;99.90
39023;DHT22;25908;51.984;5.928;2023-02-03T09:32:19;10.70;99.90
39023;DHT22;25908;51.984;5.928;2023-02-03T09:34:44;10.70;99.90
39023;DHT22;25908;51.984;5.928;2023-02-03T09:37:10;10.70;99.90
39023;DHT22;25908;51.984;5.928;2023-02-03T09:39:35;10.80;99.90
39023;DHT22;25908;51.984;5.928;2023-02-03T09:45:20;10.90;99.90
39023;DHT22;25908;51.984;5.928;2023-02-03T09:47:48;10.90;99.90
39023;DHT22;25908;51.984;5.928;2023-02-03T09:50:27;10.90;99.90
39023;DHT22;25908;51.984;5.928;2023-02-03T09:52:54;10.90;99.90
39023;DHT22;25908;51.984;5.928;2023-02-03T09:55:31;10.90;99.90
39023;DHT22;25908;51.984;5.928;2023-02-03T09:58:11;10.90;99.90
39023;DHT22;25908;51.984;5.928;2023-02-03T10:00:55;11.00;99.90
39023;DHT22;25908;51.984;5.928;2023-02-03T10:03:31;11.00;99.90
39023;DHT22;25908;51.984;5.928;2023-02-03T10:08:59;11.00;99.90
39023;DHT22;25908;51.984;5.928;2023-02-03T10:17:36;11.10;99.90
39023;DHT22;25908;51.984;5.928;2023-02-03T10:20:14;11.10;99.90
39023;DHT22;25908;51.984;5.928;2023-02-03T10:22:46;11.10;99.90
39023;DHT22;25908;51.984;5.928;2023-02-03T10:27:40;11.10;99.90
39023;DHT22;25908;51.984;5.928;2023-02-03T10:30:19;11.10;99.90
39023;DHT22;25908;51.984;5.928;2023-02-03T10:32:49;11.10;99.90
39023;DHT22;25908;51.984;5.928;2023-02-03T10:35:17;11.10;99.90
39023;DHT22;25908;51.984;5.928;2023-02-03T10:37:45;11.20;99.90
39023;DHT22;25908;51.984;5.928;2023-02-03T10:40:13;11.20;99.90
39023;DHT22;25908;51.984;5.928;2023-02-03T10:42:40;11.20;99.90
39023;DHT22;25908;51.984;5.928;2023-02-03T10:45:25;11.20;99.90
39023;DHT22;25908;51.984;5.928;2023-02-03T10:47:53;11.20;99.90
39023;DHT22;25908;51.984;5.928;2023-02-03T10:50:22;11.20;99.90
39023;DHT22;25908;51.984;5.928;2023-02-03T10:52:48;11.20;99.90
39023;DHT22;25908;51.984;5.928;2023-02-03T10:57:52;11.30;99.90
39023;DHT22;25908;51.984;5.928;2023-02-03T11:00:26;11.30;99.90
39023;DHT22;25908;51.984;5.928;2023-02-03T11:02:59;11.30;99.90
39023;DHT22;25908;51.984;5.928;2023-02-03T11:05:27;11.30;99.90
39023;DHT22;25908;51.984;5.928;2023-02-03T11:07:53;11.30;99.90
39023;DHT22;25908;51.984;5.928;2023-02-03T11:10:39;11.40;99.90
39023;DHT22;25908;51.984;5.928;2023-02-03T11:13:11;11.40;99.90
39023;DHT22;25908;51.984;5.928;2023-02-03T11:18:39;11.40;99.90
39023;DHT22;25908;51.984;5.928;2023-02-03T11:21:09;11.40;99.90
39023;DHT22;25908;51.984;5.928;2023-02-03T11:23:37;11.40;99.90
39023;DHT22;25908;51.984;5.928;2023-02-03T11:26:16;11.40;99.90
39023;DHT22;25908;51.984;5.928;2023-02-03T11:28:45;11.40;99.90
39023;DHT22;25908;51.984;5.928;2023-02-03T11:31:19;11.40;99.90
39023;DHT22;25908;51.984;5.928;2023-02-03T11:33:55;11.40;99.90
39023;DHT22;25908;51.984;5.928;2023-02-03T11:36:24;11.40;99.90
39023;DHT22;25908;51.984;5.928;2023-02-03T11:38:50;11.40;99.90
39023;DHT22;25908;51.984;5.928;2023-02-03T11:41:18;11.50;99.90
39023;DHT22;25908;51.984;5.928;2023-02-03T11:43:45;11.50;99.90
39023;DHT22;25908;51.984;5.928;2023-02-03T11:46:11;11.50;99.90
39023;DHT22;25908;51.984;5.928;2023-02-03T11:51:25;11.60;99.90
39023;DHT22;25908;51.984;5.928;2023-02-03T11:57:23;11.60;99.90
39023;DHT22;25908;51.984;5.928;2023-02-03T12:11:01;11.60;99.90
39023;DHT22;25908;51.984;5.928;2023-02-03T12:22:30;11.60;99.90
39023;DHT22;25908;51.984;5.928;2023-02-03T12:25:14;11.60;99.90
39023;DHT22;25908;51.984;5.928;2023-02-03T12:28:16;11.60;99.90
39023;DHT22;25908;51.984;5.928;2023-02-03T12:30:43;11.60;99.90
39023;DHT22;25908;51.984;5.928;2023-02-03T12:33:20;11.60;99.90
39023;DHT22;25908;51.984;5.928;2023-02-03T12:36:17;11.60;99.90
39023;DHT22;25908;51.984;5.928;2023-02-03T12:39:19;11.60;99.90
39023;DHT22;25908;51.984;5.928;2023-02-03T12:41:51;11.50;99.90
39023;DHT22;25908;51.984;5.928;2023-02-03T12:44:32;11.40;99.90
39023;DHT22;25908;51.984;5.928;2023-02-03T12:47:01;11.40;99.90
39023;DHT22;25908;51.984;5.928;2023-02-03T12:49:39;11.40;99.90
39023;DHT22;25908;51.984;5.928;2023-02-03T12:52:29;11.30;99.90
39023;DHT22;25908;51.984;5.928;2023-02-03T12:57:52;11.30;99.90
39023;DHT22;25908;51.984;5.928;2023-02-03T13:03:40;11.10;99.90
39023;DHT22;25908;51.984;5.928;2023-02-03T13:06:18;11.10;99.90
39023;DHT22;25908;51.984;5.928;2023-02-03T13:12:27;10.90;99.90
39023;DHT22;25908;51.984;5.928;2023-02-03T13:17:41;11.00;99.90
39023;DHT22;25908;51.984;5.928;2023-02-03T13:20:23;11.00;99.90
39023;DHT22;25908;51.984;5.928;2023-02-03T13:22:49;10.90;99.90
39023;DHT22;25908;51.984;5.928;2023-02-03T13:25:44;11.00;99.90
39023;DHT22;25908;51.984;5.928;2023-02-03T13:29:05;10.90;99.90
39023;DHT22;25908;51.984;5.928;2023-02-03T13:31:35;11.00;99.90
39023;DHT22;25908;51.984;5.928;2023-02-03T13:37:03;10.90;99.90
39023;DHT22;25908;51.984;5.928;2023-02-03T13:39:45;11.00;99.90
39023;DHT22;25908;51.984;5.928;2023-02-03T13:44:42;10.90;99.90
39023;DHT22;25908;51.984;5.928;2023-02-03T13:47:15;10.90;99.90
39023;DHT22;25908;51.984;5.928;2023-02-03T13:49:44;10.90;99.90
39023;DHT22;25908;51.984;5.928;2023-02-03T13:55:39;10.90;99.90
39023;DHT22;25908;51.984;5.928;2023-02-03T13:58:21;10.90;99.90
39023;DHT22;25908;51.984;5.928;2023-02-03T14:05:52;10.90;99.90
39023;DHT22;25908;51.984;5.928;2023-02-03T14:16:37;10.90;99.90
39023;DHT22;25908;51.984;5.928;2023-02-03T14:19:07;10.90;99.90
39023;DHT22;25908;51.984;5.928;2023-02-03T14:24:18;11.00;99.90
39023;DHT22;25908;51.984;5.928;2023-02-03T14:26:49;11.00;99.90
39023;DHT22;25908;51.984;5.928;2023-02-03T14:29:35;11.00;99.90
39023;DHT22;25908;51.984;5.928;2023-02-03T14:32:06;11.00;99.90
39023;DHT22;25908;51.984;5.928;2023-02-03T14:34:48;11.00;99.90
39023;DHT22;25908;51.984;5.928;2023-02-03T14:37:26;11.10;99.90
39023;DHT22;25908;51.984;5.928;2023-02-03T14:43:07;11.00;99.90
39023;DHT22;25908;51.984;5.928;2023-02-03T14:53:38;11.00;99.90
39023;DHT22;25908;51.984;5.928;2023-02-03T14:56:21;10.90;99.90
39023;DHT22;25908;51.984;5.928;2023-02-03T14:59:00;10.90;99.90
39023;DHT22;25908;51.984;5.928;2023-02-03T15:06:45;10.80;99.90
39023;DHT22;25908;51.984;5.928;2023-02-03T15:09:38;10.80;99.90
39023;DHT22;25908;51.984;5.928;2023-02-03T15:12:18;10.80;99.90
39023;DHT22;25908;51.984;5.928;2023-02-03T15:14:46;10.80;99.90
39023;DHT22;25908;51.984;5.928;2023-02-03T15:17:22;10.80;99.90
39023;DHT22;25908;51.984;5.928;2023-02-03T15:19:49;10.80;99.90
39023;DHT22;25908;51.984;5.928;2023-02-03T15:24:48;10.80;99.90
39023;DHT22;25908;51.984;5.928;2023-02-03T15:27:23;10.80;99.90
39023;DHT22;25908;51.984;5.928;2023-02-03T15:29:49;10.80;99.90
39023;DHT22;25908;51.984;5.928;2023-02-03T15:32:21;10.80;99.90
39023;DHT22;25908;51.984;5.928;2023-02-03T15:34:50;10.80;99.90
39023;DHT22;25908;51.984;5.928;2023-02-03T15:37:17;10.80;99.90
39023;DHT22;25908;51.984;5.928;2023-02-03T15:39:54;10.80;99.90
39023;DHT22;25908;51.984;5.928;2023-02-03T15:47:51;10.70;99.90
39023;DHT22;25908;51.984;5.928;2023-02-03T15:50:34;10.70;99.90
39023;DHT22;25908;51.984;5.928;2023-02-03T15:53:09;10.70;99.90
39023;DHT22;25908;51.984;5.928;2023-02-03T15:55:42;10.70;99.90
39023;DHT22;25908;51.984;5.928;2023-02-03T15:58:39;10.70;99.90
39023;DHT22;25908;51.984;5.928;2023-02-03T16:01:11;10.70;99.90
39023;DHT22;25908;51.984;5.928;2023-02-03T16:03:43;10.70;99.90
39023;DHT22;25908;51.984;5.928;2023-02-03T16:06:25;10.70;99.90
39023;DHT22;25908;51.984;5.928;2023-02-03T16:08:54;10.70;99.90
39023;DHT22;25908;51.984;5.928;2023-02-03T16:11:28;10.70;99.90
39023;DHT22;25908;51.984;5.928;2023-02-03T16:13:55;10.70;99.90
39023;DHT22;25908;51.984;5.928;2023-02-03T16:18:58;10.70;99.90
39023;DHT22;25908;51.984;5.928;2023-02-03T16:21:42;10.70;99.90
39023;DHT22;25908;51.984;5.928;2023-02-03T16:26:55;10.60;99.90
39023;DHT22;25908;51.984;5.928;2023-02-03T16:29:40;10.60;99.90
39023;DHT22;25908;51.984;5.928;2023-02-03T16:32:24;10.60;99.90
39023;DHT22;25908;51.984;5.928;2023-02-03T16:35:09;10.70;99.90
39023;DHT22;25908;51.984;5.928;2023-02-03T16:37:53;10.60;99.90
39023;DHT22;25908;51.984;5.928;2023-02-03T16:40:37;10.60;99.90
39023;DHT22;25908;51.984;5.928;2023-02-03T16:43:21;10.60;99.90
39023;DHT22;25908;51.984;5.928;2023-02-03T16:46:10;10.60;99.90
39023;DHT22;25908;51.984;5.928;2023-02-03T16:48:54;10.60;99.90
39023;DHT22;25908;51.984;5.928;2023-02-03T16:51:40;10.60;99.90
39023;DHT22;25908;51.984;5.928;2023-02-03T16:54:11;10.60;99.90
39023;DHT22;25908;51.984;5.928;2023-02-03T16:56:41;10.60;99.90
39023;DHT22;25908;51.984;5.928;2023-02-03T16:59:07;10.60;99.90
39023;DHT22;25908;51.984;5.928;2023-02-03T17:01:33;10.60;99.90
39023;DHT22;25908;51.984;5.928;2023-02-03T17:03:58;10.50;99.90
39023;DHT22;25908;51.984;5.928;2023-02-03T17:06:24;10.50;99.90
39023;DHT22;25908;51.984;5.928;2023-02-03T17:08:49;10.50;99.90
39023;DHT22;25908;51.984;5.928;2023-02-03T17:11:20;10.50;99.90
39023;DHT22;25908;51.984;5.928;2023-02-03T17:13:49;10.50;99.90
39023;DHT22;25908;51.984;5.928;2023-02-03T17:16:18;10.40;99.90
39023;DHT22;25908;51.984;5.928;2023-02-03T17:18:44;10.40;99.90
39023;DHT22;25908;51.984;5.928;2023-02-03T17:21:14;10.40;99.90
39023;DHT22;25908;51.984;5.928;2023-02-03T17:23:40;10.40;99.90
39023;DHT22;25908;51.984;5.928;2023-02-03T17:26:06;10.30;99.90
39023;DHT22;25908;51.984;5.928;2023-02-03T17:28:33;10.30;99.90
39023;DHT22;25908;51.984;5.928;2023-02-03T17:31:01;10.30;99.90
39023;DHT22;25908;51.984;5.928;2023-02-03T17:33:28;10.30;99.90
39023;DHT22;25908;51.984;5.928;2023-02-03T17:38:25;10.20;99.90
39023;DHT22;25908;51.984;5.928;2023-02-03T17:40:51;10.20;99.90
39023;DHT22;25908;51.984;5.928;2023-02-03T17:43:17;10.20;99.90
39023;DHT22;25908;51.984;5.928;2023-02-03T17:45:43;10.10;99.90
39023;DHT22;25908;51.984;5.928;2023-02-03T17:48:09;10.20;99.90
39023;DHT22;25908;51.984;5.928;2023-02-03T17:50:35;10.20;99.90
39023;DHT22;25908;51.984;5.928;2023-02-03T17:53:00;10.10;99.90
39023;DHT22;25908;51.984;5.928;2023-02-03T17:55:26;10.10;99.90
39023;DHT22;25908;51.984;5.928;2023-02-03T17:57:51;10.10;99.90
39023;DHT22;25908;51.984;5.928;2023-02-03T18:00:17;10.10;99.90
39023;DHT22;25908;51.984;5.928;2023-02-03T18:02:43;10.10;99.90
39023;DHT22;25908;51.984;5.928;2023-02-03T18:05:08;10.10;99.90
39023;DHT22;25908;51.984;5.928;2023-02-03T18:07:34;10.10;99.90
39023;DHT22;25908;51.984;5.928;2023-02-03T18:10:00;10.10;99.90